createdAt,value
2023-05-19T00:00:10.640Z,15.30
2023-05-19T00:02:41.736Z,15.76
2023-05-19T00:05:10.451Z,15.56
2023-05-19T00:07:39.473Z,15.66
2023-05-19T00:10:07.301Z,15.65
2023-05-19T00:12:35.616Z,15.50
2023-05-19T00:15:03.015Z,15.67
2023-05-19T00:17:31.569Z,15.76
2023-05-19T00:19:58.720Z,15.73
2023-05-19T00:22:26.041Z,15.79
2023-05-19T00:24:53.161Z,15.78
2023-05-19T00:27:20.311Z,15.79
2023-05-19T00:29:47.433Z,15.79
2023-05-19T00:32:14.565Z,15.67
2023-05-19T00:34:41.729Z,15.59
2023-05-19T00:37:08.954Z,15.44
2023-05-19T00:39:35.998Z,15.31
2023-05-19T00:42:03.217Z,15.20
2023-05-19T00:44:30.288Z,15.42
2023-05-19T00:46:58.025Z,15.13
2023-05-19T00:49:25.302Z,15.05
2023-05-19T00:51:52.315Z,14.86
2023-05-19T00:54:21.091Z,15.03
2023-05-19T00:56:49.986Z,14.98
2023-05-19T00:59:17.440Z,15.00
2023-05-19T01:01:49.068Z,14.94
2023-05-19T01:04:20.196Z,14.66
2023-05-19T01:06:55.200Z,14.86
2023-05-19T01:09:23.092Z,14.88
2023-05-19T01:11:50.737Z,14.73
2023-05-19T01:14:19.585Z,14.46
2023-05-19T01:16:51.814Z,14.71
2023-05-19T01:19:25.571Z,14.75
2023-05-19T01:22:13.295Z,14.34
2023-05-19T01:25:00.251Z,14.56
2023-05-19T01:27:46.285Z,14.61
2023-05-19T01:30:25.444Z,14.51
2023-05-19T01:32:54.981Z,14.77
2023-05-19T01:35:26.354Z,14.62
2023-05-19T01:37:56.956Z,14.39
2023-05-19T01:40:25.766Z,14.65
2023-05-19T01:42:57.411Z,14.77
2023-05-19T01:45:28.077Z,14.78
2023-05-19T01:47:59.272Z,14.61
2023-05-19T01:50:27.126Z,14.74
2023-05-19T01:52:55.483Z,14.81
2023-05-19T01:55:25.312Z,14.89
2023-05-19T01:57:52.311Z,14.90
2023-05-19T02:00:32.201Z,14.62
2023-05-19T02:03:11.477Z,14.81
2023-05-19T02:05:46.054Z,14.71
2023-05-19T02:08:34.650Z,14.72
2023-05-19T02:11:19.822Z,14.92
2023-05-19T02:13:50.482Z,14.95
2023-05-19T02:16:18.080Z,14.82
2023-05-19T02:18:46.342Z,14.87
2023-05-19T02:21:13.682Z,15.02
2023-05-19T02:23:44.073Z,14.89
2023-05-19T02:26:11.290Z,15.08
2023-05-19T02:28:38.389Z,14.95
2023-05-19T02:31:08.986Z,14.87
2023-05-19T02:33:36.424Z,14.82
2023-05-19T02:36:03.636Z,14.96
2023-05-19T02:38:31.097Z,14.97
2023-05-19T02:40:58.761Z,14.83
2023-05-19T02:43:25.932Z,15.02
2023-05-19T02:45:53.073Z,14.97
2023-05-19T02:48:20.232Z,14.93
2023-05-19T02:50:47.311Z,14.96
2023-05-19T02:53:14.422Z,14.99
2023-05-19T02:55:42.486Z,14.88
2023-05-19T02:58:09.678Z,14.98
2023-05-19T03:00:36.906Z,14.97
2023-05-19T03:03:04.678Z,14.82
2023-05-19T03:05:31.962Z,14.88
2023-05-19T03:07:59.089Z,14.83
2023-05-19T03:10:26.337Z,14.85
2023-05-19T03:12:53.624Z,14.61
2023-05-19T03:15:23.220Z,14.68
2023-05-19T03:17:50.556Z,14.64
2023-05-19T03:20:18.234Z,14.75
2023-05-19T03:22:45.233Z,14.76
2023-05-19T03:25:12.533Z,14.62
2023-05-19T03:27:40.729Z,14.64
2023-05-19T03:30:09.143Z,14.56
2023-05-19T03:32:46.834Z,14.77
2023-05-19T03:35:14.048Z,14.81
2023-05-19T03:37:41.092Z,14.36
2023-05-19T03:40:09.089Z,14.37
2023-05-19T03:42:37.973Z,14.61
2023-05-19T03:45:06.014Z,14.06
2023-05-19T03:47:33.219Z,14.57
2023-05-19T03:50:10.964Z,14.55
2023-05-19T03:52:50.633Z,14.69
2023-05-19T03:55:30.076Z,14.61
2023-05-19T03:57:57.456Z,14.79
2023-05-19T04:00:25.115Z,14.74
2023-05-19T04:02:52.301Z,14.42
2023-05-19T04:05:19.502Z,14.78
2023-05-19T04:07:46.971Z,14.61
2023-05-19T04:10:14.566Z,14.75
2023-05-19T04:12:41.700Z,14.77
2023-05-19T04:15:11.608Z,14.94
2023-05-19T04:17:39.624Z,14.92
2023-05-19T04:20:07.417Z,14.86
2023-05-19T04:22:34.543Z,14.94
2023-05-19T04:25:01.902Z,14.89
2023-05-19T04:27:30.279Z,14.70
2023-05-19T04:29:58.241Z,14.91
2023-05-19T04:32:25.883Z,14.88
2023-05-19T04:34:54.179Z,13.99
2023-05-19T04:37:26.271Z,14.46
2023-05-19T04:39:54.311Z,14.70
2023-05-19T04:42:26.257Z,14.77
2023-05-19T04:44:54.698Z,14.75
2023-05-19T04:47:28.293Z,14.76
2023-05-19T04:49:55.920Z,14.69
2023-05-19T04:52:23.893Z,14.59
2023-05-19T04:54:51.532Z,14.73
2023-05-19T04:57:18.792Z,14.64
2023-05-19T04:59:46.489Z,14.83
2023-05-19T05:02:13.992Z,14.47
2023-05-19T05:04:42.775Z,14.62
2023-05-19T05:07:10.937Z,14.94
2023-05-19T05:09:38.813Z,14.98
2023-05-19T05:12:08.166Z,14.85
2023-05-19T05:14:37.271Z,15.05
2023-05-19T05:17:05.403Z,14.99
2023-05-19T05:19:33.142Z,15.07
2023-05-19T05:22:00.695Z,15.08
2023-05-19T05:24:28.257Z,14.92
2023-05-19T05:26:59.608Z,15.16
2023-05-19T05:29:27.122Z,15.08
2023-05-19T05:31:54.631Z,15.48
2023-05-19T05:34:23.155Z,15.52
2023-05-19T05:36:50.341Z,15.57
2023-05-19T05:39:18.625Z,15.62
2023-05-19T05:41:45.967Z,15.65
2023-05-19T05:44:13.346Z,15.76
2023-05-19T05:46:43.013Z,15.85
2023-05-19T05:49:12.531Z,15.59
2023-05-19T05:51:51.117Z,15.87
2023-05-19T05:54:30.256Z,15.88
2023-05-19T05:56:57.930Z,15.61
2023-05-19T05:59:25.214Z,15.90
2023-05-19T06:01:52.292Z,15.93
2023-05-19T06:04:21.402Z,16.18
2023-05-19T06:06:48.644Z,15.59
2023-05-19T06:09:20.989Z,16.08
2023-05-19T06:11:48.220Z,16.37
2023-05-19T06:14:15.452Z,16.38
2023-05-19T06:17:03.665Z,16.33
2023-05-19T06:19:31.263Z,16.50
2023-05-19T06:21:58.693Z,16.04
2023-05-19T06:24:25.923Z,16.78
2023-05-19T06:26:53.134Z,16.65
2023-05-19T06:29:20.310Z,16.76
2023-05-19T06:31:48.604Z,16.52
2023-05-19T06:34:17.826Z,17.12
2023-05-19T06:36:47.087Z,17.28
2023-05-19T06:39:15.215Z,17.37
2023-05-19T06:41:42.441Z,17.52
2023-05-19T06:44:09.694Z,17.67
2023-05-19T06:46:37.058Z,17.78
2023-05-19T06:49:04.822Z,17.88
2023-05-19T06:51:36.958Z,17.79
2023-05-19T06:54:04.731Z,18.13
2023-05-19T06:56:34.132Z,18.13
2023-05-19T06:59:01.230Z,18.24
2023-05-19T07:01:34.518Z,18.15
2023-05-19T07:04:02.431Z,18.32
2023-05-19T07:06:30.274Z,18.18
2023-05-19T07:08:57.821Z,18.44
2023-05-19T07:11:26.477Z,18.41
2023-05-19T07:13:54.173Z,18.68
2023-05-19T07:16:26.959Z,18.82
2023-05-19T07:18:55.315Z,18.62
2023-05-19T07:21:22.466Z,19.03
2023-05-19T07:23:50.424Z,19.07
2023-05-19T07:26:17.577Z,19.08
2023-05-19T07:28:44.787Z,19.02
2023-05-19T07:31:11.870Z,19.42
2023-05-19T07:33:38.966Z,19.32
2023-05-19T07:36:06.160Z,19.30
2023-05-19T07:38:36.186Z,19.52
2023-05-19T07:41:03.740Z,19.67
2023-05-19T07:43:30.909Z,19.61
2023-05-19T07:45:58.075Z,19.94
2023-05-19T07:48:26.021Z,19.92
2023-05-19T07:50:53.558Z,20.02
2023-05-19T07:53:21.032Z,20.12
2023-05-19T07:55:48.487Z,20.07
2023-05-19T07:58:15.966Z,20.03
2023-05-19T08:00:43.430Z,20.31
2023-05-19T08:03:10.859Z,20.69
2023-05-19T08:05:38.191Z,20.76
2023-05-19T08:08:05.584Z,20.73
2023-05-19T08:10:32.967Z,20.90
2023-05-19T08:13:00.450Z,21.07
2023-05-19T08:15:27.609Z,21.17
2023-05-19T08:17:54.740Z,21.24
2023-05-19T08:20:23.178Z,21.23
2023-05-19T08:22:50.811Z,21.23
2023-05-19T08:25:19.872Z,21.28
2023-05-19T08:27:47.057Z,21.48
2023-05-19T08:30:14.455Z,21.43
2023-05-19T08:32:41.880Z,21.54
2023-05-19T08:35:09.504Z,21.60
2023-05-19T08:37:38.222Z,21.67
2023-05-19T08:40:06.061Z,21.72
2023-05-19T08:42:34.062Z,21.64
2023-05-19T08:45:02.565Z,21.60
2023-05-19T08:47:29.871Z,21.75
2023-05-19T08:50:10.956Z,21.86
2023-05-19T08:53:04.272Z,22.07
2023-05-19T08:55:36.890Z,22.22
2023-05-19T08:58:05.050Z,22.35
2023-05-19T09:00:33.217Z,22.51
2023-05-19T09:05:34.000Z,22.78
2023-05-19T09:08:02.932Z,22.83
2023-05-19T09:10:30.012Z,22.96
2023-05-19T09:12:57.190Z,22.97
2023-05-19T09:15:30.856Z,23.04
2023-05-19T09:18:11.991Z,23.21
2023-05-19T09:20:43.676Z,23.33
2023-05-19T09:23:17.528Z,23.34
2023-05-19T09:25:52.421Z,23.24
2023-05-19T09:28:33.414Z,23.20
2023-05-19T09:31:11.345Z,23.53
2023-05-19T09:33:42.202Z,23.35
2023-05-19T09:36:13.668Z,23.39
2023-05-19T09:38:41.481Z,23.35
2023-05-19T09:41:09.422Z,23.45
2023-05-19T09:43:36.901Z,23.37
2023-05-19T09:46:06.341Z,23.55
2023-05-19T09:48:35.638Z,23.66
2023-05-19T09:51:05.306Z,23.71
2023-05-19T09:53:34.990Z,23.69
2023-05-19T09:56:03.707Z,23.67
2023-05-19T09:58:37.431Z,23.57
2023-05-19T10:01:05.888Z,23.61
2023-05-19T10:03:34.147Z,23.69
2023-05-19T10:06:01.768Z,23.82
2023-05-19T10:08:30.855Z,23.93
2023-05-19T10:10:58.514Z,23.81
2023-05-19T10:13:26.010Z,24.05
2023-05-19T10:15:58.610Z,24.15
2023-05-19T10:18:30.270Z,24.19
2023-05-19T10:20:58.222Z,24.16
2023-05-19T10:23:26.223Z,24.26
2023-05-19T10:25:58.382Z,24.19
2023-05-19T10:28:31.309Z,24.02
2023-05-19T10:31:01.892Z,24.22
2023-05-19T10:33:45.207Z,24.34
2023-05-19T10:36:47.894Z,24.33
2023-05-19T10:39:28.483Z,24.41
2023-05-19T10:42:04.851Z,24.58
2023-05-19T10:44:45.971Z,24.72
2023-05-19T10:47:13.457Z,24.67
2023-05-19T10:49:40.898Z,24.77
2023-05-19T10:52:26.418Z,24.85
2023-05-19T10:54:54.957Z,24.62
2023-05-19T10:57:31.916Z,24.98
2023-05-19T11:00:11.225Z,24.75
2023-05-19T11:02:43.420Z,24.63
2023-05-19T11:05:16.796Z,24.80
2023-05-19T11:07:47.869Z,24.64
2023-05-19T11:10:23.786Z,24.31
2023-05-19T11:12:52.330Z,24.77
2023-05-19T11:15:26.062Z,24.92
2023-05-19T11:17:53.953Z,25.10
2023-05-19T11:20:22.929Z,25.20
2023-05-19T11:23:20.354Z,25.30
2023-05-19T11:25:52.276Z,24.93
2023-05-19T11:28:25.739Z,24.92
2023-05-19T11:30:55.496Z,25.21
2023-05-19T11:33:27.371Z,25.36
2023-05-19T11:35:59.697Z,25.33
2023-05-19T11:38:30.197Z,25.22
2023-05-19T11:40:57.831Z,25.23
2023-05-19T11:43:26.280Z,25.30
2023-05-19T11:45:55.061Z,25.57
2023-05-19T11:48:22.811Z,25.68
2023-05-19T11:50:50.506Z,25.76
2023-05-19T11:53:17.717Z,25.77
2023-05-19T11:55:49.023Z,26.10
2023-05-19T11:58:16.930Z,25.98
2023-05-19T12:00:47.948Z,25.96
2023-05-19T12:03:15.623Z,25.86
2023-05-19T12:05:46.807Z,25.95
2023-05-19T12:08:17.238Z,25.88
2023-05-19T12:10:50.001Z,25.71
2023-05-19T12:13:17.422Z,25.88
2023-05-19T12:15:44.683Z,25.74
2023-05-19T12:18:12.305Z,25.74
2023-05-19T12:20:39.760Z,25.69
2023-05-19T12:23:07.671Z,25.74
2023-05-19T12:25:35.187Z,25.79
2023-05-19T12:28:05.547Z,25.86
2023-05-19T12:30:33.605Z,26.17
2023-05-19T12:33:02.808Z,26.35
2023-05-19T12:35:34.470Z,26.29
2023-05-19T12:38:07.765Z,26.48
2023-05-19T12:40:36.322Z,26.64
2023-05-19T12:43:04.224Z,26.71
2023-05-19T12:45:35.523Z,26.79
2023-05-19T12:48:11.469Z,26.42
2023-05-19T12:50:39.111Z,26.68
2023-05-19T12:53:16.294Z,26.79
2023-05-19T12:55:45.234Z,26.75
2023-05-19T12:58:12.803Z,26.95
2023-05-19T13:00:45.699Z,26.82
2023-05-19T13:03:17.909Z,26.91
2023-05-19T13:05:48.248Z,26.94
2023-05-19T13:08:21.591Z,26.88
2023-05-19T13:10:49.817Z,27.08
2023-05-19T13:13:17.562Z,26.59
2023-05-19T13:15:48.728Z,27.13
2023-05-19T13:18:17.288Z,27.11
2023-05-19T13:20:45.615Z,27.29
2023-05-19T13:23:13.777Z,27.49
2023-05-19T13:25:41.554Z,27.41
2023-05-19T13:28:09.767Z,27.72
2023-05-19T13:30:39.152Z,27.57
2023-05-19T13:33:06.741Z,27.73
2023-05-19T13:35:37.647Z,27.76
2023-05-19T13:38:07.034Z,27.80
2023-05-19T13:40:35.225Z,27.67
2023-05-19T13:43:03.408Z,27.60
2023-05-19T13:45:30.730Z,27.66
2023-05-19T13:47:57.753Z,27.70
2023-05-19T13:50:24.793Z,27.65
2023-05-19T13:52:52.158Z,27.81
2023-05-19T13:55:19.535Z,27.92
2023-05-19T13:57:46.657Z,27.63
2023-05-19T14:00:14.682Z,27.86
2023-05-19T14:02:42.493Z,27.97
2023-05-19T14:05:10.185Z,27.90
2023-05-19T14:07:37.322Z,28.05
2023-05-19T14:10:08.087Z,28.15
2023-05-19T14:12:49.493Z,28.06
2023-05-19T14:15:23.860Z,27.78
2023-05-19T14:17:51.070Z,27.91
2023-05-19T14:20:18.397Z,27.96
2023-05-19T14:22:45.633Z,27.91
2023-05-19T14:25:12.709Z,27.89
2023-05-19T14:27:42.611Z,27.58
2023-05-19T14:30:10.251Z,27.81
2023-05-19T14:32:37.468Z,27.87
2023-05-19T14:35:05.119Z,27.86
2023-05-19T14:37:32.476Z,27.81
2023-05-19T14:39:59.927Z,27.40
2023-05-19T14:42:27.032Z,27.40
2023-05-19T14:44:54.233Z,27.03
2023-05-19T14:47:21.553Z,26.12
2023-05-19T14:49:48.852Z,26.78
2023-05-19T14:52:16.036Z,26.36
2023-05-19T14:54:43.144Z,25.88
2023-05-19T14:57:10.197Z,26.01
2023-05-19T14:59:38.088Z,26.03
2023-05-19T15:02:05.786Z,25.94
2023-05-19T15:04:32.886Z,25.85
2023-05-19T15:09:30.073Z,25.76
2023-05-19T15:11:57.380Z,25.69
2023-05-19T15:14:24.468Z,25.38
2023-05-19T15:16:51.581Z,25.19
2023-05-19T15:19:18.765Z,25.13
2023-05-19T15:21:45.993Z,24.72
2023-05-19T15:24:13.096Z,24.75
2023-05-19T15:26:40.286Z,24.52
2023-05-19T15:29:07.341Z,24.60
2023-05-19T15:31:35.932Z,24.56
2023-05-19T15:34:05.166Z,24.30
2023-05-19T15:36:32.397Z,24.00
2023-05-19T15:38:59.505Z,24.31
2023-05-19T15:41:26.889Z,24.02
2023-05-19T15:43:54.125Z,23.62
2023-05-19T15:46:21.512Z,23.91
2023-05-19T15:48:48.653Z,23.72
2023-05-19T15:51:16.157Z,23.80
2023-05-19T15:53:43.319Z,23.53
2023-05-19T15:56:10.780Z,23.57
2023-05-19T15:58:37.907Z,23.57
2023-05-19T16:01:05.358Z,23.45
2023-05-19T16:03:32.881Z,23.63
2023-05-19T16:06:01.107Z,23.66
2023-05-19T16:08:28.914Z,23.52
2023-05-19T16:10:56.510Z,23.43
2023-05-19T16:13:23.717Z,23.18
2023-05-19T16:15:50.970Z,23.39
2023-05-19T16:18:18.264Z,23.07
2023-05-19T16:20:45.534Z,23.42
2023-05-19T16:23:12.776Z,23.40
2023-05-19T16:25:40.007Z,23.34
2023-05-19T16:28:07.334Z,23.29
2023-05-19T16:30:34.803Z,23.32
2023-05-19T16:33:02.243Z,23.35
2023-05-19T16:35:29.931Z,22.90
2023-05-19T16:37:57.150Z,23.24
2023-05-19T16:40:24.343Z,23.00
2023-05-19T16:42:53.469Z,23.07
2023-05-19T16:45:20.760Z,23.23
2023-05-19T16:47:47.941Z,23.20
2023-05-19T16:50:15.295Z,22.84
2023-05-19T16:52:42.638Z,23.13
2023-05-19T16:55:11.091Z,23.19
2023-05-19T16:57:38.298Z,22.92
2023-05-19T17:00:06.105Z,22.81
2023-05-19T17:02:33.357Z,22.65
2023-05-19T17:05:00.614Z,22.63
2023-05-19T17:07:29.304Z,22.44
2023-05-19T17:09:56.684Z,22.26
2023-05-19T17:12:23.859Z,22.53
2023-05-19T17:14:52.288Z,22.46
2023-05-19T17:17:19.676Z,21.96
2023-05-19T17:19:46.951Z,21.62
2023-05-19T17:22:14.177Z,22.09
2023-05-19T17:24:41.474Z,21.85
2023-05-19T17:27:08.643Z,21.97
2023-05-19T17:29:36.924Z,22.01
2023-05-19T17:32:04.551Z,21.82
2023-05-19T17:34:31.783Z,21.90
2023-05-19T17:36:59.176Z,21.90
2023-05-19T17:39:26.396Z,21.54
2023-05-19T17:41:53.432Z,21.50
2023-05-19T17:44:20.565Z,21.81
2023-05-19T17:46:47.874Z,21.84
2023-05-19T17:49:15.572Z,21.83
2023-05-19T17:51:42.992Z,21.65
2023-05-19T17:54:10.236Z,21.44
2023-05-19T17:56:42.770Z,21.69
2023-05-19T17:59:10.487Z,21.62
2023-05-19T18:01:37.773Z,21.41
2023-05-19T18:04:05.686Z,21.60
2023-05-19T18:06:33.190Z,21.55
2023-05-19T18:09:01.431Z,21.57
2023-05-19T18:11:28.969Z,21.38
2023-05-19T18:13:56.310Z,21.17
2023-05-19T18:16:23.439Z,21.23
2023-05-19T18:18:51.100Z,21.26
2023-05-19T18:21:18.264Z,20.80
2023-05-19T18:23:45.932Z,21.12
2023-05-19T18:26:13.496Z,21.09
2023-05-19T18:28:41.916Z,21.13
2023-05-19T18:31:11.078Z,21.04
2023-05-19T18:33:38.226Z,20.32
2023-05-19T18:36:05.631Z,20.97
2023-05-19T18:38:32.652Z,20.03
2023-05-19T18:41:00.899Z,20.12
2023-05-19T18:43:30.244Z,20.80
2023-05-19T18:45:57.474Z,20.29
2023-05-19T18:48:25.831Z,20.93
2023-05-19T18:50:53.037Z,20.88
2023-05-19T18:53:22.484Z,20.79
2023-05-19T18:55:49.632Z,20.93
2023-05-19T18:58:18.779Z,20.97
2023-05-19T19:00:46.108Z,20.61
2023-05-19T19:03:13.538Z,20.57
2023-05-19T19:05:40.906Z,20.69
2023-05-19T19:08:08.066Z,20.53
2023-05-19T19:10:39.122Z,20.73
2023-05-19T19:13:06.864Z,20.44
2023-05-19T19:15:33.957Z,20.21
2023-05-19T19:18:01.132Z,20.64
2023-05-19T19:20:28.201Z,20.52
2023-05-19T19:22:55.276Z,20.59
2023-05-19T19:25:23.707Z,20.54
2023-05-19T19:27:51.330Z,20.49
2023-05-19T19:30:18.480Z,20.16
2023-05-19T19:32:45.915Z,20.56
2023-05-19T19:35:13.165Z,20.50
2023-05-19T19:37:40.222Z,20.15
2023-05-19T19:40:07.949Z,20.46
2023-05-19T19:42:35.435Z,20.56
2023-05-19T19:45:02.567Z,20.37
2023-05-19T19:47:29.661Z,19.90
2023-05-19T19:49:56.814Z,19.89
2023-05-19T19:52:24.042Z,20.08
2023-05-19T19:54:51.250Z,19.84
2023-05-19T19:57:18.488Z,19.69
2023-05-19T19:59:45.708Z,19.96
2023-05-19T20:02:12.883Z,19.96
2023-05-19T20:04:40.168Z,19.99
2023-05-19T20:07:07.381Z,19.96
2023-05-19T20:09:34.500Z,19.94
2023-05-19T20:12:01.661Z,20.04
2023-05-19T20:14:28.849Z,19.63
2023-05-19T20:16:55.960Z,20.11
2023-05-19T20:19:28.017Z,20.13
2023-05-19T20:21:55.481Z,20.03
2023-05-19T20:24:22.663Z,20.02
2023-05-19T20:26:49.881Z,20.19
2023-05-19T20:29:17.099Z,19.98
2023-05-19T20:31:46.528Z,20.11
2023-05-19T20:34:13.803Z,20.06
2023-05-19T20:36:41.178Z,20.20
2023-05-19T20:39:11.003Z,20.19
2023-05-19T20:41:38.089Z,20.21
2023-05-19T20:44:06.119Z,20.17
2023-05-19T20:46:33.361Z,20.15
2023-05-19T20:49:00.561Z,20.11
2023-05-19T20:51:27.731Z,20.15
2023-05-19T20:53:54.837Z,20.18
2023-05-19T20:56:22.726Z,20.00
2023-05-19T20:58:49.955Z,20.18
2023-05-19T21:01:17.340Z,20.02
2023-05-19T21:03:44.485Z,20.19
2023-05-19T21:06:11.730Z,19.84
2023-05-19T21:08:38.936Z,20.21
2023-05-19T21:11:06.246Z,20.13
2023-05-19T21:13:51.768Z,20.20
2023-05-19T21:16:18.883Z,20.17
2023-05-19T21:18:46.179Z,20.23
2023-05-19T21:21:13.270Z,20.15
2023-05-19T21:23:40.318Z,19.69
2023-05-19T21:26:07.606Z,19.79
2023-05-19T21:28:34.668Z,19.98
2023-05-19T21:31:01.860Z,19.93
2023-05-19T21:33:29.078Z,19.93
2023-05-19T21:35:58.182Z,19.98
2023-05-19T21:38:25.341Z,20.06
2023-05-19T21:40:53.285Z,20.02
2023-05-19T21:43:23.393Z,19.90
2023-05-19T21:45:50.645Z,19.89
2023-05-19T21:48:18.144Z,19.80
2023-05-19T21:50:45.363Z,19.98
2023-05-19T21:53:12.694Z,19.86
2023-05-19T21:55:39.890Z,19.52
2023-05-19T21:58:07.082Z,19.40
2023-05-19T22:00:34.520Z,19.49
2023-05-19T22:03:01.952Z,19.45
2023-05-19T22:05:35.099Z,19.45
2023-05-19T22:08:02.261Z,19.21
2023-05-19T22:10:29.424Z,19.32
2023-05-19T22:12:57.600Z,18.99
2023-05-19T22:15:24.828Z,18.47
2023-05-19T22:17:52.088Z,18.42
2023-05-19T22:20:19.371Z,18.53
2023-05-19T22:22:46.536Z,18.44
2023-05-19T22:25:13.730Z,18.44
2023-05-19T22:27:40.861Z,18.09
2023-05-19T22:30:08.494Z,18.08
2023-05-19T22:32:36.298Z,18.24
2023-05-19T22:35:03.683Z,18.09
2023-05-19T22:37:30.977Z,17.92
2023-05-19T22:39:58.073Z,18.14
2023-05-19T22:42:25.357Z,17.85
2023-05-19T22:44:52.500Z,18.00
2023-05-19T22:47:19.559Z,17.89
2023-05-19T22:49:46.898Z,17.81
2023-05-19T22:52:14.630Z,17.48
2023-05-19T22:54:42.014Z,17.84
2023-05-19T22:57:09.628Z,17.61
2023-05-19T22:59:38.349Z,17.50
2023-05-19T23:02:06.145Z,17.61
2023-05-19T23:04:34.535Z,17.48
2023-05-19T23:07:01.858Z,17.37
2023-05-19T23:09:28.924Z,16.76
2023-05-19T23:11:56.122Z,17.17
2023-05-19T23:14:23.162Z,17.14
2023-05-19T23:16:50.450Z,17.23
2023-05-19T23:19:17.685Z,17.27
2023-05-19T23:21:46.008Z,17.29
2023-05-19T23:24:13.112Z,17.10
2023-05-19T23:26:45.986Z,17.22
2023-05-19T23:29:14.858Z,16.40
2023-05-19T23:31:42.031Z,16.95
2023-05-19T23:34:09.192Z,17.17
2023-05-19T23:36:36.832Z,16.91
2023-05-19T23:39:03.969Z,16.77
2023-05-19T23:41:31.549Z,16.19
2023-05-19T23:43:58.648Z,16.05
2023-05-19T23:46:26.028Z,16.14
2023-05-19T23:48:53.071Z,16.27
2023-05-19T23:51:20.106Z,15.93
2023-05-19T23:53:47.198Z,16.31
2023-05-19T23:56:14.409Z,16.53
2023-05-19T23:58:41.512Z,16.16
